Time;durP1;ratioP1;P1;durP2;ratioP2;P2;SDS_P1;SDS_P2;PMS_P1;PMS_P2;Temp;Humidity;BMP_temperature;BMP_pressure;BME280_temperature;BME280_humidity;BME280_pressure;Samples;Min_cycle;Max_cycle;Signal;HPM_P1;HPM_P2
2024/01/19 00:00:16;;;;;;;7.20;0.63;;;-0.20;76.50;;;;;;5034415;28;20084;-75
2024/01/19 00:02:41;;;;;;;2.53;0.60;;;-0.20;76.50;;;;;;5032428;28;20049;-75
2024/01/19 00:05:07;;;;;;;4.60;0.50;;;-0.20;76.40;;;;;;5025825;28;20041;-75
2024/01/19 00:07:33;;;;;;;3.37;0.60;;;-0.20;76.40;;;;;;5020183;28;20049;-74
2024/01/19 00:09:59;;;;;;;4.43;0.53;;;-0.10;76.40;;;;;;5025921;28;20060;-73
2024/01/19 00:12:25;;;;;;;3.30;0.37;;;-0.10;76.90;;;;;;5020869;28;20092;-73
2024/01/19 00:14:50;;;;;;;3.80;0.30;;;-0.10;77.40;;;;;;5021692;28;20201;-74
2024/01/19 00:17:16;;;;;;;5.63;0.40;;;-0.10;78.40;;;;;;5021130;28;20054;-75
2024/01/19 00:19:42;;;;;;;4.93;0.50;;;-0.10;79.20;;;;;;5022237;28;20038;-74
2024/01/19 00:22:07;;;;;;;6.83;0.50;;;-0.10;79.40;;;;;;5020877;28;20061;-74
2024/01/19 00:24:33;;;;;;;3.00;0.40;;;0.00;79.40;;;;;;5025378;28;20071;-74
2024/01/19 00:26:59;;;;;;;3.47;0.50;;;0.00;79.20;;;;;;5024931;28;20452;-74
2024/01/19 00:29:24;;;;;;;5.70;0.50;;;0.00;79.10;;;;;;5017453;28;20049;-74
2024/01/19 00:31:50;;;;;;;4.20;0.47;;;0.00;79.10;;;;;;5025587;28;20107;-74
2024/01/19 00:34:16;;;;;;;3.07;0.33;;;0.00;79.10;;;;;;5022657;28;20183;-76
2024/01/19 00:36:42;;;;;;;5.07;0.50;;;0.00;79.20;;;;;;5021606;28;20376;-74
2024/01/19 00:39:08;;;;;;;6.30;0.57;;;0.00;79.40;;;;;;5025946;28;20045;-74
2024/01/19 00:41:34;;;;;;;9.73;0.70;;;0.00;79.50;;;;;;5023651;28;20033;-74
2024/01/19 00:43:59;;;;;;;8.67;0.87;;;0.00;79.60;;;;;;5024544;28;20163;-74
2024/01/19 00:46:25;;;;;;;8.27;0.90;;;0.00;80.40;;;;;;5013778;28;20053;-75
2024/01/19 00:48:51;;;;;;;5.93;0.70;;;0.00;81.30;;;;;;5025152;28;20527;-75
2024/01/19 00:51:17;;;;;;;6.77;0.77;;;0.00;81.80;;;;;;5014714;28;20041;-75
2024/01/19 00:53:44;;;;;;;2.70;0.53;;;-0.10;81.80;;;;;;5017998;28;20037;-75
2024/01/19 00:56:09;;;;;;;4.03;0.57;;;-0.10;81.10;;;;;;5021522;28;20033;-75
2024/01/19 00:58:40;;;;;;;3.47;0.57;;;-0.10;80.10;;;;;;5016687;28;20408;-74
2024/01/19 01:01:06;;;;;;;3.85;0.38;;;-0.10;79.10;;;;;;5021771;28;20045;-77
2024/01/19 01:03:32;;;;;;;3.63;0.60;;;-0.10;78.60;;;;;;5018853;28;20397;-75
2024/01/19 01:06:00;;;;;;;3.93;0.40;;;-0.10;78.50;;;;;;5020786;28;20053;-74
2024/01/19 01:08:27;;;;;;;2.83;0.47;;;-0.10;78.40;;;;;;5020634;28;20093;-74
2024/01/19 01:10:54;;;;;;;1.73;0.40;;;-0.10;78.30;;;;;;5022738;28;20044;-74
2024/01/19 01:13:20;;;;;;;3.93;0.60;;;-0.20;78.40;;;;;;5025532;28;20079;-74
2024/01/19 01:15:46;;;;;;;4.47;0.50;;;-0.20;78.40;;;;;;5012776;28;20107;-74
2024/01/19 01:18:12;;;;;;;5.67;0.40;;;-0.30;78.40;;;;;;5038000;28;20045;-74
2024/01/19 01:20:38;;;;;;;5.93;0.80;;;-0.30;78.60;;;;;;5017159;28;20042;-74
2024/01/19 01:23:03;;;;;;;3.97;0.80;;;-0.30;78.80;;;;;;5014746;28;20045;-76
2024/01/19 01:25:30;;;;;;;3.40;0.60;;;-0.40;78.90;;;;;;5022740;28;20053;-74
2024/01/19 01:27:56;;;;;;;3.77;0.50;;;-0.40;79.20;;;;;;5021445;28;20396;-74
2024/01/19 01:30:23;;;;;;;5.20;0.70;;;-0.40;79.30;;;;;;5026465;28;20057;-75
2024/01/19 01:32:48;;;;;;;6.60;0.70;;;-0.50;79.30;;;;;;5027241;28;20041;-74
2024/01/19 01:35:14;;;;;;;2.77;0.60;;;-0.50;79.40;;;;;;5017017;28;20069;-75
2024/01/19 01:37:40;;;;;;;5.17;0.87;;;-0.50;79.40;;;;;;5023703;28;20123;-74
2024/01/19 01:40:07;;;;;;;6.33;0.73;;;-0.50;79.30;;;;;;5024666;28;20037;-75
2024/01/19 01:42:32;;;;;;;4.37;0.60;;;-0.60;79.20;;;;;;5022617;28;20076;-75
2024/01/19 01:45:00;;;;;;;6.03;0.70;;;-0.60;79.50;;;;;;5023368;28;20198;-74
2024/01/19 01:47:26;;;;;;;4.73;0.53;;;-0.70;79.80;;;;;;5013097;28;20046;-74
2024/01/19 01:49:54;;;;;;;6.80;1.00;;;-0.70;80.00;;;;;;5010301;28;20420;-74
2024/01/19 01:52:20;;;;;;;6.13;0.70;;;-0.70;80.00;;;;;;5013144;28;20073;-74
2024/01/19 01:54:46;;;;;;;8.80;1.07;;;-0.90;80.10;;;;;;5020235;28;20087;-74
2024/01/19 01:57:14;;;;;;;5.27;1.17;;;-0.90;80.40;;;;;;5014231;28;20038;-74
2024/01/19 01:59:40;;;;;;;7.43;1.30;;;-0.90;80.50;;;;;;5008572;28;20489;-75
2024/01/19 02:02:06;;;;;;;6.87;1.03;;;-0.90;81.00;;;;;;5022534;28;20128;-74
2024/01/19 02:04:34;;;;;;;9.57;1.37;;;-0.90;81.10;;;;;;5018220;28;20059;-74
2024/01/19 02:07:00;;;;;;;7.17;1.00;;;-0.80;81.60;;;;;;5006556;28;20050;-74
2024/01/19 02:09:26;;;;;;;7.53;1.27;;;-0.70;81.60;;;;;;5010794;28;20053;-75
2024/01/19 02:11:52;;;;;;;10.40;1.30;;;-0.70;81.60;;;;;;5033780;28;20043;-74
2024/01/19 02:14:18;;;;;;;9.33;1.27;;;-0.70;81.70;;;;;;5035779;28;20076;-74
2024/01/19 02:16:44;;;;;;;7.77;1.50;;;-0.70;82.30;;;;;;5033541;28;20539;-74
2024/01/19 02:19:10;;;;;;;13.43;1.10;;;-0.70;82.40;;;;;;5038186;28;20053;-76
2024/01/19 02:21:35;;;;;;;7.77;1.33;;;-0.70;82.70;;;;;;5038439;28;20083;-76
2024/01/19 02:24:03;;;;;;;7.37;1.67;;;-0.70;82.90;;;;;;5037663;28;20045;-74
2024/01/19 02:26:34;;;;;;;8.43;1.40;;;-0.70;83.10;;;;;;5010540;28;20118;-75
2024/01/19 02:29:01;;;;;;;9.13;1.15;;;-0.70;83.20;;;;;;5042609;28;20226;-74
2024/01/19 02:31:26;;;;;;;9.93;1.20;;;-0.70;83.30;;;;;;5038783;28;20346;-75
2024/01/19 02:33:52;;;;;;;11.40;1.07;;;-0.70;83.40;;;;;;5034783;28;20364;-75
2024/01/19 02:36:18;;;;;;;7.23;1.60;;;-0.70;83.50;;;;;;5035815;28;20128;-74
2024/01/19 02:38:44;;;;;;;13.50;1.63;;;-0.70;83.60;;;;;;5038241;28;20064;-74
2024/01/19 02:41:10;;;;;;;8.70;1.70;;;-0.80;83.60;;;;;;5037330;28;20044;-74
2024/01/19 02:43:35;;;;;;;9.17;1.60;;;-0.90;83.50;;;;;;5034416;28;20133;-75
2024/01/19 02:46:01;;;;;;;12.37;1.67;;;-0.90;83.50;;;;;;5040152;28;20403;-74
2024/01/19 02:48:27;;;;;;;10.10;1.70;;;-0.90;83.40;;;;;;5037976;28;20447;-74
2024/01/19 02:50:53;;;;;;;8.57;1.60;;;-1.00;83.40;;;;;;5022350;28;21238;-76
2024/01/19 02:53:19;;;;;;;11.37;2.00;;;-1.00;83.40;;;;;;5042269;28;20555;-75
2024/01/19 02:55:45;;;;;;;6.57;1.30;;;-1.10;83.40;;;;;;5042505;28;20056;-75
2024/01/19 02:58:11;;;;;;;9.83;1.53;;;-1.10;83.30;;;;;;5024890;28;20083;-75
2024/01/19 03:00:37;;;;;;;19.63;2.23;;;-1.20;83.30;;;;;;5026180;28;20700;-74
2024/01/19 03:03:02;;;;;;;15.03;2.00;;;-1.30;83.30;;;;;;5036347;28;20484;-76
2024/01/19 03:05:28;;;;;;;11.20;1.90;;;-1.30;83.30;;;;;;5034067;28;20055;-75
2024/01/19 03:07:54;;;;;;;13.13;2.03;;;-1.30;83.40;;;;;;5035234;28;20477;-75
2024/01/19 03:10:20;;;;;;;13.40;2.30;;;-1.40;83.30;;;;;;5016102;28;20424;-74
2024/01/19 03:12:46;;;;;;;12.10;2.10;;;-1.40;83.40;;;;;;5034887;28;20060;-74
2024/01/19 03:15:11;;;;;;;11.50;1.90;;;-1.40;83.40;;;;;;5036310;28;20212;-74
2024/01/19 03:17:37;;;;;;;10.90;1.70;;;-1.40;83.50;;;;;;5020600;28;20091;-74
2024/01/19 03:20:05;;;;;;;14.77;2.03;;;-1.40;83.60;;;;;;5036777;28;20068;-76
2024/01/19 03:22:31;;;;;;;17.20;1.87;;;-1.30;83.80;;;;;;5018077;28;20061;-74
2024/01/19 03:24:56;;;;;;;23.43;2.30;;;-1.30;83.90;;;;;;5028028;28;20045;-74
2024/01/19 03:27:22;;;;;;;15.03;2.17;;;-1.30;83.80;;;;;;5030989;28;20045;-77
2024/01/19 03:29:48;;;;;;;17.43;1.97;;;-1.30;83.80;;;;;;5019971;28;20040;-75
2024/01/19 03:32:14;;;;;;;11.33;1.73;;;-1.10;84.10;;;;;;5044925;28;20037;-74
2024/01/19 03:34:40;;;;;;;11.63;1.83;;;-1.10;84.00;;;;;;5039804;28;20030;-75
2024/01/19 03:37:06;;;;;;;19.63;1.90;;;-1.00;84.10;;;;;;5046632;28;20051;-74
2024/01/19 03:39:32;;;;;;;13.37;1.70;;;-0.90;84.20;;;;;;5042406;28;20057;-76
2024/01/19 03:41:59;;;;;;;11.10;1.77;;;-0.70;84.30;;;;;;5030423;28;20225;-75
2024/01/19 03:44:24;;;;;;;14.17;2.13;;;-0.70;84.10;;;;;;5041856;28;20166;-75
2024/01/19 03:46:51;;;;;;;13.27;1.90;;;-0.70;83.80;;;;;;5049581;28;20480;-75
2024/01/19 03:49:17;;;;;;;13.30;1.77;;;-0.70;83.60;;;;;;5049260;28;20086;-75
2024/01/19 03:52:05;;;;;;;10.20;1.60;;;-0.70;83.40;;;;;;5026680;28;20060;-75
2024/01/19 03:54:32;;;;;;;11.20;1.87;;;-0.70;83.20;;;;;;5029230;28;20044;-75
2024/01/19 03:56:59;;;;;;;15.90;1.60;;;-0.70;82.90;;;;;;5023906;28;20107;-75
2024/01/19 03:59:24;;;;;;;13.33;1.80;;;-0.70;82.60;;;;;;5043261;28;20124;-74
2024/01/19 04:01:51;;;;;;;9.63;1.27;;;-0.70;82.40;;;;;;5038100;28;20132;-74
2024/01/19 04:04:16;;;;;;;12.53;1.83;;;-0.70;82.20;;;;;;5030553;28;20037;-75
2024/01/19 04:06:43;;;;;;;11.07;1.70;;;-0.90;81.90;;;;;;5040027;28;20115;-75
2024/01/19 04:09:09;;;;;;;9.17;1.27;;;-0.90;81.80;;;;;;5027781;28;20535;-74
2024/01/19 04:11:38;;;;;;;15.53;2.00;;;-0.90;81.50;;;;;;5043941;28;20089;-74
2024/01/19 04:14:04;;;;;;;13.63;2.00;;;-0.90;81.30;;;;;;5046935;28;20900;-74
2024/01/19 04:16:29;;;;;;;17.07;2.30;;;-0.90;81.10;;;;;;5047544;28;20069;-75
2024/01/19 04:18:55;;;;;;;16.10;1.80;;;-1.00;81.00;;;;;;5042139;28;20068;-74
2024/01/19 04:21:21;;;;;;;21.60;2.20;;;-1.00;80.90;;;;;;5044379;28;20056;-76
2024/01/19 04:23:46;;;;;;;12.80;1.87;;;-1.00;80.80;;;;;;5042458;28;20653;-75
2024/01/19 04:26:12;;;;;;;13.40;1.73;;;-1.00;80.60;;;;;;5033692;28;20046;-75
2024/01/19 04:28:39;;;;;;;20.50;2.60;;;-1.00;80.50;;;;;;5023278;28;20047;-75
2024/01/19 04:31:05;;;;;;;17.60;2.53;;;-1.00;80.30;;;;;;5044628;28;20048;-74
2024/01/19 04:33:31;;;;;;;16.00;2.27;;;-1.00;80.30;;;;;;5051552;28;20447;-74
2024/01/19 04:35:57;;;;;;;19.33;2.50;;;-1.00;80.30;;;;;;5042363;28;20045;-75
2024/01/19 04:38:23;;;;;;;16.23;2.47;;;-1.10;80.40;;;;;;5046583;28;20044;-74
2024/01/19 04:40:48;;;;;;;13.17;2.77;;;-1.10;80.20;;;;;;5045399;28;20073;-75
2024/01/19 04:43:14;;;;;;;16.30;2.50;;;-1.10;80.20;;;;;;5037351;28;20050;-74
2024/01/19 04:45:40;;;;;;;16.23;2.77;;;-1.10;80.10;;;;;;5032866;28;20492;-75
2024/01/19 04:48:05;;;;;;;13.10;1.77;;;-1.10;80.10;;;;;;5031590;28;20476;-75
2024/01/19 04:50:31;;;;;;;15.93;1.60;;;-1.10;80.00;;;;;;5037250;28;20136;-74
2024/01/19 04:52:57;;;;;;;10.70;1.90;;;-1.20;79.80;;;;;;5027650;28;20422;-75
2024/01/19 04:55:23;;;;;;;12.63;1.53;;;-1.30;79.70;;;;;;5038776;28;20369;-75
2024/01/19 04:57:48;;;;;;;10.83;1.63;;;-1.30;79.70;;;;;;5028348;28;20048;-74
2024/01/19 05:00:14;;;;;;;9.03;1.73;;;-1.30;79.50;;;;;;5028453;28;20167;-76
2024/01/19 05:02:40;;;;;;;11.97;1.77;;;-1.30;79.20;;;;;;5028266;28;20053;-76
2024/01/19 05:05:06;;;;;;;12.17;1.67;;;-1.30;79.10;;;;;;5046118;28;20045;-75
2024/01/19 05:07:33;;;;;;;12.30;1.67;;;-1.30;79.00;;;;;;5029050;28;20048;-74
2024/01/19 05:10:00;;;;;;;12.63;1.30;;;-1.40;78.90;;;;;;5026780;28;21579;-75
2024/01/19 05:12:26;;;;;;;11.17;1.53;;;-1.50;78.90;;;;;;5024892;28;20059;-75
2024/01/19 05:14:51;;;;;;;11.00;1.70;;;-1.50;78.80;;;;;;5044112;28;20053;-74
2024/01/19 05:17:18;;;;;;;8.63;0.93;;;-1.50;78.70;;;;;;5039368;28;20051;-75
2024/01/19 05:19:43;;;;;;;7.37;1.40;;;-1.50;78.70;;;;;;5037648;28;20053;-75
2024/01/19 05:22:09;;;;;;;17.30;1.30;;;-1.40;79.00;;;;;;5036696;28;20045;-75
2024/01/19 05:24:39;;;;;;;8.80;1.47;;;-1.30;80.30;;;;;;5009318;28;20471;-75
2024/01/19 05:27:05;;;;;;;11.47;1.20;;;-1.20;81.50;;;;;;5046339;28;20041;-75
2024/01/19 05:29:31;;;;;;;5.97;1.37;;;-1.10;81.50;;;;;;5038834;28;20226;-76
2024/01/19 05:31:56;;;;;;;8.47;1.40;;;-1.10;81.40;;;;;;5029214;28;20084;-74
2024/01/19 05:34:22;;;;;;;14.77;2.00;;;-1.10;81.10;;;;;;5038336;28;20036;-74
2024/01/19 05:36:48;;;;;;;9.43;1.63;;;-1.10;81.00;;;;;;5033885;28;20049;-74
2024/01/19 05:39:13;;;;;;;11.13;1.10;;;-1.10;80.90;;;;;;5032534;28;20069;-75
2024/01/19 05:41:39;;;;;;;8.07;1.40;;;-1.10;80.70;;;;;;5028276;28;20052;-75
2024/01/19 05:44:04;;;;;;;10.37;1.50;;;-1.10;80.70;;;;;;5034031;28;20041;-75
2024/01/19 05:46:30;;;;;;;8.77;1.33;;;-1.10;80.50;;;;;;5037564;28;20431;-76
2024/01/19 05:48:56;;;;;;;14.93;1.53;;;-1.10;80.40;;;;;;5031765;28;20091;-74
2024/01/19 05:51:22;;;;;;;13.40;1.20;;;-1.20;80.10;;;;;;5021096;28;20459;-75
2024/01/19 05:53:48;;;;;;;9.63;1.70;;;-1.30;80.10;;;;;;5047716;28;20090;-74
2024/01/19 05:56:14;;;;;;;5.27;1.10;;;-1.30;80.10;;;;;;5044083;28;20480;-75
2024/01/19 05:58:39;;;;;;;12.70;1.70;;;-1.30;80.00;;;;;;5045942;28;20045;-75
2024/01/19 06:01:05;;;;;;;11.57;1.97;;;-1.30;80.10;;;;;;5040068;28;20535;-74
2024/01/19 06:03:35;;;;;;;16.73;1.77;;;-1.30;80.10;;;;;;5043408;28;20147;-75
2024/01/19 06:06:02;;;;;;;14.73;1.90;;;-1.30;80.20;;;;;;5042416;28;20056;-75
2024/01/19 06:08:31;;;;;;;14.37;2.00;;;-1.30;80.60;;;;;;5045012;28;20433;-75
2024/01/19 06:10:57;;;;;;;14.13;1.63;;;-1.30;81.10;;;;;;5042301;28;20056;-74
2024/01/19 06:13:23;;;;;;;14.27;1.60;;;-1.30;81.80;;;;;;5041238;28;20430;-74
2024/01/19 06:15:50;;;;;;;17.07;1.93;;;-1.30;82.10;;;;;;5044428;28;20072;-74
2024/01/19 06:18:16;;;;;;;16.73;2.10;;;-1.30;82.30;;;;;;5041757;28;20103;-74
2024/01/19 06:20:42;;;;;;;11.33;1.63;;;-1.30;82.40;;;;;;5041122;28;20049;-74
2024/01/19 06:23:12;;;;;;;14.13;1.70;;;-1.30;82.60;;;;;;5041067;28;20401;-74
2024/01/19 06:25:39;;;;;;;14.93;1.70;;;-1.40;82.50;;;;;;5017117;28;20068;-74
2024/01/19 06:28:09;;;;;;;8.47;1.27;;;-1.40;82.80;;;;;;5026074;28;20053;-74
2024/01/19 06:30:34;;;;;;;9.57;1.33;;;-1.40;82.90;;;;;;5014171;28;20045;-76
2024/01/19 06:33:01;;;;;;;9.87;1.23;;;-1.50;83.00;;;;;;5020011;28;20059;-75
2024/01/19 06:35:26;;;;;;;10.13;1.37;;;-1.40;83.10;;;;;;5020824;28;20096;-75
2024/01/19 06:37:52;;;;;;;8.43;1.13;;;-1.40;83.20;;;;;;5003117;28;20556;-77
2024/01/19 06:40:18;;;;;;;8.47;1.10;;;-1.40;83.40;;;;;;5028128;28;20053;-75
2024/01/19 06:42:46;;;;;;;8.57;1.20;;;-1.40;83.30;;;;;;5035950;28;20053;-78
2024/01/19 06:45:16;;;;;;;4.50;0.80;;;-1.50;83.30;;;;;;5036486;28;20041;-76
2024/01/19 06:47:42;;;;;;;8.37;1.30;;;-1.40;83.30;;;;;;5042094;28;20053;-75
2024/01/19 06:50:08;;;;;;;9.20;1.30;;;-1.40;83.70;;;;;;5038552;28;20206;-75
2024/01/19 06:52:34;;;;;;;7.93;1.80;;;-1.40;83.70;;;;;;5025641;28;20049;-76
2024/01/19 06:54:59;;;;;;;10.33;1.97;;;-1.40;83.60;;;;;;5024325;28;20938;-75
2024/01/19 06:57:25;;;;;;;18.07;2.57;;;-1.50;83.50;;;;;;5040961;28;20048;-75
2024/01/19 06:59:51;;;;;;;10.97;1.77;;;-1.50;83.50;;;;;;5030627;28;20170;-75
2024/01/19 07:02:17;;;;;;;14.27;2.17;;;-1.50;83.60;;;;;;5035931;28;20049;-75
2024/01/19 07:04:43;;;;;;;20.70;2.47;;;-1.60;83.50;;;;;;5019769;28;20071;-76
2024/01/19 07:07:09;;;;;;;13.30;2.20;;;-1.60;83.50;;;;;;5023856;28;20052;-75
2024/01/19 07:09:36;;;;;;;18.57;2.17;;;-1.70;83.50;;;;;;5044193;28;20072;-75
2024/01/19 07:12:03;;;;;;;19.37;2.50;;;-1.70;83.60;;;;;;5024803;28;20453;-76
2024/01/19 07:14:29;;;;;;;17.00;2.30;;;-1.80;83.50;;;;;;5026401;28;20133;-75
2024/01/19 07:16:55;;;;;;;20.27;2.77;;;-1.80;83.60;;;;;;5037790;28;20155;-75
2024/01/19 07:19:21;;;;;;;18.10;2.73;;;-1.80;83.60;;;;;;5042413;28;20045;-75
2024/01/19 07:21:46;;;;;;;19.77;2.60;;;-1.90;83.60;;;;;;5043092;28;20554;-75
2024/01/19 07:24:13;;;;;;;17.30;2.60;;;-1.90;83.70;;;;;;5041094;28;20163;-76
2024/01/19 07:26:39;;;;;;;26.03;2.93;;;-1.90;83.60;;;;;;5025668;28;20049;-75
2024/01/19 07:29:06;;;;;;;24.03;3.30;;;-1.90;83.60;;;;;;5044038;28;20448;-75
2024/01/19 07:31:36;;;;;;;25.73;2.80;;;-1.80;83.70;;;;;;5043806;28;20148;-75
2024/01/19 07:34:03;;;;;;;20.67;2.83;;;-1.80;83.60;;;;;;5040265;28;20418;-76
2024/01/19 07:36:29;;;;;;;18.10;2.53;;;-1.80;83.60;;;;;;5044099;28;20064;-75
2024/01/19 07:38:55;;;;;;;22.23;3.20;;;-1.80;83.50;;;;;;5040760;28;20040;-76
2024/01/19 07:41:20;;;;;;;20.73;2.43;;;-1.80;83.40;;;;;;5025190;28;20529;-76
2024/01/19 07:43:46;;;;;;;16.73;2.73;;;-1.80;83.40;;;;;;5023215;28;20041;-76
2024/01/19 07:46:14;;;;;;;20.77;2.73;;;-1.80;83.30;;;;;;5041420;28;20054;-75
2024/01/19 07:48:40;;;;;;;17.73;2.80;;;-1.80;83.30;;;;;;5040390;28;20103;-75
2024/01/19 07:51:06;;;;;;;17.23;2.43;;;-1.70;83.30;;;;;;5037031;28;20045;-77
2024/01/19 07:53:32;;;;;;;16.63;2.37;;;-1.70;83.30;;;;;;5043428;28;20106;-76
2024/01/19 07:55:58;;;;;;;22.47;2.73;;;-1.60;83.20;;;;;;5019820;28;20045;-76
2024/01/19 07:58:24;;;;;;;14.87;2.40;;;-1.50;83.20;;;;;;5043853;28;20048;-75
2024/01/19 08:00:50;;;;;;;22.47;2.90;;;-1.50;83.00;;;;;;5042795;28;20053;-75
2024/01/19 08:03:17;;;;;;;17.27;3.23;;;-1.50;82.90;;;;;;5025108;28;20593;-75
2024/01/19 08:05:43;;;;;;;22.03;2.70;;;-1.50;82.80;;;;;;5024273;28;20049;-76
2024/01/19 08:08:09;;;;;;;19.77;3.20;;;-1.50;82.70;;;;;;5026078;28;20120;-75
2024/01/19 08:10:36;;;;;;;17.03;3.20;;;-1.50;82.60;;;;;;5028475;28;20125;-75
2024/01/19 08:13:03;;;;;;;25.07;2.83;;;-1.60;82.40;;;;;;5042914;28;20171;-75
2024/01/19 08:15:29;;;;;;;17.83;2.87;;;-1.60;82.50;;;;;;5043468;28;20540;-75
2024/01/19 08:17:55;;;;;;;15.83;2.67;;;-1.60;82.40;;;;;;5045414;28;20534;-75
2024/01/19 08:20:24;;;;;;;19.67;2.77;;;-1.60;82.30;;;;;;5041046;28;20132;-76
2024/01/19 08:22:53;;;;;;;19.37;3.40;;;-1.60;82.10;;;;;;5040015;28;20045;-75
2024/01/19 08:25:19;;;;;;;13.73;3.03;;;-1.70;82.00;;;;;;5034864;28;20849;-76
2024/01/19 08:27:46;;;;;;;24.20;3.23;;;-1.60;82.00;;;;;;5033174;28;20057;-76
2024/01/19 08:30:12;;;;;;;18.30;3.33;;;-1.70;82.10;;;;;;5011925;28;20053;-77
2024/01/19 08:32:38;;;;;;;16.70;3.47;;;-1.60;82.00;;;;;;5033326;28;20045;-76
2024/01/19 08:35:08;;;;;;;18.80;3.77;;;-1.50;81.90;;;;;;5029249;28;20106;-76
2024/01/19 08:37:41;;;;;;;16.37;3.60;;;-1.50;81.90;;;;;;5015263;28;20141;-76
2024/01/19 08:40:11;;;;;;;20.50;3.17;;;-1.30;81.60;;;;;;5028724;28;20361;-77
2024/01/19 08:42:37;;;;;;;19.30;4.03;;;-1.30;81.50;;;;;;5032010;28;20045;-76
2024/01/19 08:45:04;;;;;;;19.97;3.43;;;-1.10;81.40;;;;;;5029784;28;20143;-76
2024/01/19 08:47:30;;;;;;;20.80;3.60;;;-1.10;81.20;;;;;;5012760;28;20040;-76
2024/01/19 08:49:56;;;;;;;18.37;3.50;;;-1.10;81.10;;;;;;5029586;28;20382;-76
2024/01/19 08:52:21;;;;;;;15.87;3.37;;;-1.00;80.80;;;;;;5011507;28;20064;-76
2024/01/19 08:54:47;;;;;;;22.10;3.07;;;-1.00;80.70;;;;;;5028842;28;20041;-75
2024/01/19 08:57:13;;;;;;;14.70;3.40;;;-0.90;80.50;;;;;;5035131;28;20642;-75
2024/01/19 08:59:39;;;;;;;17.47;3.53;;;-0.90;80.40;;;;;;5033352;28;20451;-75
2024/01/19 09:02:05;;;;;;;17.40;3.50;;;-0.70;80.20;;;;;;5035924;28;20167;-76
2024/01/19 09:04:33;;;;;;;18.87;3.83;;;-0.60;80.20;;;;;;5031115;28;20099;-75
2024/01/19 09:06:59;;;;;;;16.13;4.10;;;-0.30;80.00;;;;;;5011153;28;20052;-75
2024/01/19 09:09:24;;;;;;;23.17;3.83;;;0.00;79.60;;;;;;5013248;28;20126;-77
2024/01/19 09:11:50;;;;;;;16.43;3.93;;;0.20;78.80;;;;;;5017874;28;20052;-76
2024/01/19 09:14:16;;;;;;;22.17;3.30;;;0.30;78.40;;;;;;5019857;28;20153;-76
2024/01/19 09:16:43;;;;;;;18.80;3.57;;;0.30;78.00;;;;;;5014269;28;20488;-76
2024/01/19 09:19:12;;;;;;;14.90;3.57;;;0.20;77.90;;;;;;5037909;28;20044;-77
2024/01/19 09:21:44;;;;;;;17.57;3.37;;;0.00;77.80;;;;;;5032662;28;20076;-76
2024/01/19 09:24:10;;;;;;;21.10;3.53;;;0.00;77.60;;;;;;5005588;28;20611;-76
2024/01/19 09:26:36;;;;;;;20.53;3.90;;;-0.10;77.90;;;;;;5031288;28;20299;-76
2024/01/19 09:29:02;;;;;;;17.43;3.00;;;-0.10;77.60;;;;;;5018976;28;20086;-77
2024/01/19 09:31:27;;;;;;;19.80;3.47;;;-0.10;77.80;;;;;;5029699;28;20076;-76
2024/01/19 09:33:53;;;;;;;17.00;3.60;;;-0.20;77.70;;;;;;5036044;28;21016;-77
2024/01/19 09:36:19;;;;;;;15.37;3.27;;;-0.20;77.60;;;;;;5015877;28;20437;-77
2024/01/19 09:38:44;;;;;;;19.10;3.40;;;-0.30;77.60;;;;;;5028330;28;20033;-77
2024/01/19 09:41:22;;;;;;;16.70;3.20;;;-0.20;77.80;;;;;;5020681;28;20063;-76
2024/01/19 09:43:49;;;;;;;14.87;2.67;;;-0.20;77.90;;;;;;5030355;28;20061;-76
2024/01/19 09:46:21;;;;;;;14.83;3.13;;;-0.20;77.70;;;;;;5008256;28;20041;-76
2024/01/19 09:49:02;;;;;;;16.43;3.07;;;-0.10;77.80;;;;;;5018985;28;20136;-75
2024/01/19 09:51:53;;;;;;;17.35;3.40;;;-0.10;77.90;;;;;;5028548;28;20045;-76
2024/01/19 09:54:28;;;;;;;16.70;3.53;;;0.00;77.70;;;;;;5028524;28;20049;-75
2024/01/19 09:56:53;;;;;;;14.50;3.17;;;0.20;77.50;;;;;;5036770;28;20037;-77
2024/01/19 09:59:22;;;;;;;17.47;2.80;;;0.30;77.30;;;;;;5035412;28;20063;-77
2024/01/19 10:01:52;;;;;;;17.83;3.30;;;0.40;76.90;;;;;;5032166;28;20052;-77
2024/01/19 10:04:20;;;;;;;13.20;2.87;;;0.50;76.70;;;;;;5028710;28;20091;-77
2024/01/19 10:06:46;;;;;;;12.93;2.53;;;0.70;76.90;;;;;;5036788;28;20110;-76
2024/01/19 10:09:12;;;;;;;17.73;3.13;;;0.90;76.60;;;;;;5028420;28;20147;-76
2024/01/19 10:11:40;;;;;;;16.40;2.60;;;1.00;76.00;;;;;;5032741;28;20069;-76
2024/01/19 10:14:06;;;;;;;19.60;3.07;;;1.00;76.00;;;;;;5015342;28;20053;-76
2024/01/19 10:16:36;;;;;;;16.60;2.43;;;1.00;76.20;;;;;;5030443;28;20041;-75
2024/01/19 10:19:02;;;;;;;13.60;2.60;;;1.40;76.00;;;;;;5034970;28;20292;-76
2024/01/19 10:21:29;;;;;;;13.70;2.30;;;1.80;75.40;;;;;;5033859;28;20061;-76
2024/01/19 10:24:11;;;;;;;12.77;2.33;;;2.30;74.80;;;;;;5030642;28;20388;-75
2024/01/19 10:26:37;;;;;;;15.80;2.50;;;2.70;73.90;;;;;;5012337;28;20401;-76
2024/01/19 10:29:10;;;;;;;13.03;2.83;;;2.70;73.20;;;;;;5027775;28;20041;-76
2024/01/19 10:31:36;;;;;;;16.13;2.33;;;2.70;73.20;;;;;;5015302;28;20080;-77
2024/01/19 10:34:02;;;;;;;10.37;2.27;;;2.80;72.10;;;;;;5027493;28;20049;-77
2024/01/19 10:36:38;;;;;;;9.23;2.30;;;3.00;72.10;;;;;;4998418;28;20087;-77
2024/01/19 10:39:25;;;;;;;12.13;1.80;;;3.10;71.70;;;;;;5010997;28;20057;-76
2024/01/19 10:42:03;;;;;;;14.37;1.97;;;3.10;71.20;;;;;;5012853;28;20160;-76
2024/01/19 10:44:29;;;;;;;14.53;1.87;;;3.50;70.60;;;;;;5004380;28;20076;-76
2024/01/19 10:46:56;;;;;;;14.37;1.50;;;4.20;69.40;;;;;;4989746;28;20136;-78
2024/01/19 10:49:22;;;;;;;9.60;1.40;;;5.00;69.50;;;;;;5002576;28;20433;-76
2024/01/19 10:51:49;;;;;;;14.07;1.60;;;5.80;67.90;;;;;;5013765;28;20057;-74
2024/01/19 10:54:24;;;;;;;12.87;1.60;;;6.10;66.40;;;;;;5007641;28;20049;-74
2024/01/19 10:57:09;;;;;;;11.53;1.87;;;6.20;65.20;;;;;;4996019;28;20122;-76
2024/01/19 10:59:35;;;;;;;15.53;2.97;;;6.10;63.50;;;;;;5016264;28;20450;-74
2024/01/19 11:02:04;;;;;;;16.17;2.43;;;5.80;65.40;;;;;;5019246;28;20091;-75
2024/01/19 11:04:31;;;;;;;14.47;2.70;;;5.90;66.60;;;;;;5005663;28;20295;-75
2024/01/19 11:06:57;;;;;;;14.93;2.40;;;5.80;66.20;;;;;;5007889;28;20045;-75
2024/01/19 11:09:23;;;;;;;9.53;2.53;;;5.60;66.50;;;;;;5009264;28;20064;-76
2024/01/19 11:11:58;;;;;;;17.43;3.03;;;5.30;66.60;;;;;;5025550;28;20048;-75
2024/01/19 11:14:26;;;;;;;13.37;2.87;;;5.10;67.70;;;;;;5017811;28;20048;-75
2024/01/19 11:16:54;;;;;;;13.17;2.63;;;5.10;66.50;;;;;;5028890;28;20037;-76
2024/01/19 11:19:21;;;;;;;14.37;3.10;;;5.50;66.90;;;;;;5030935;28;20047;-75
2024/01/19 11:21:47;;;;;;;14.10;2.63;;;5.90;65.10;;;;;;5013851;28;20045;-76
2024/01/19 11:24:16;;;;;;;16.03;1.80;;;6.00;63.80;;;;;;5027370;28;20507;-75
2024/01/19 11:26:57;;;;;;;15.13;2.70;;;6.00;64.50;;;;;;5023951;28;20601;-77
2024/01/19 11:29:31;;;;;;;;;;;6.10;64.30;;;;;;5028695;28;20044;-76
2024/01/19 11:31:58;;;;;;;11.93;2.37;;;6.40;63.30;;;;;;5034178;28;19933;-76
2024/01/19 11:34:41;;;;;;;14.43;2.30;;;6.60;63.80;;;;;;5013345;28;20110;-76
2024/01/19 11:37:07;;;;;;;11.07;2.33;;;6.80;62.80;;;;;;5019870;28;20080;-77
2024/01/19 11:39:40;;;;;;;11.90;2.50;;;7.00;63.00;;;;;;5002061;28;20403;-76
2024/01/19 11:42:06;;;;;;;14.20;1.87;;;6.90;63.40;;;;;;5006817;28;20052;-76
2024/01/19 11:44:43;;;;;;;8.80;1.67;;;6.90;63.50;;;;;;5026852;28;20057;-77
2024/01/19 11:47:29;;;;;;;9.20;1.70;;;7.00;63.40;;;;;;5008385;28;20536;-77
2024/01/19 11:49:54;;;;;;;13.97;2.40;;;7.10;62.90;;;;;;5026557;28;20052;-76
2024/01/19 11:52:20;;;;;;;10.07;2.07;;;7.20;62.80;;;;;;5029876;28;20053;-76
2024/01/19 11:54:46;;;;;;;11.17;2.40;;;7.60;61.40;;;;;;5031429;28;20093;-77
2024/01/19 11:57:23;;;;;;;15.37;2.50;;;7.60;61.30;;;;;;5021102;28;20069;-76
2024/01/19 11:59:49;;;;;;;14.03;2.03;;;7.40;61.20;;;;;;5012207;28;20075;-76
2024/01/19 12:02:31;;;;;;;12.03;2.30;;;7.20;62.50;;;;;;5030871;28;20499;-77
2024/01/19 12:04:59;;;;;;;8.60;2.30;;;6.90;63.10;;;;;;5011132;28;20037;-77
2024/01/19 12:07:25;;;;;;;10.30;2.20;;;6.50;63.40;;;;;;5030615;28;20118;-76
2024/01/19 12:10:11;;;;;;;9.57;1.90;;;6.10;64.40;;;;;;5028331;28;20025;-75
2024/01/19 12:12:39;;;;;;;17.33;2.43;;;5.60;64.80;;;;;;5011442;28;20065;-75
2024/01/19 12:15:10;;;;;;;15.87;2.27;;;5.10;66.10;;;;;;5030652;28;20107;-77
2024/01/19 12:17:40;;;;;;;8.77;1.70;;;4.90;66.70;;;;;;5011587;28;20044;-75
2024/01/19 12:20:17;;;;;;;10.07;1.93;;;4.90;67.00;;;;;;5010141;28;20045;-76
2024/01/19 12:22:44;;;;;;;18.40;2.27;;;4.90;67.10;;;;;;5002340;28;20457;-78
2024/01/19 12:25:13;;;;;;;15.43;1.80;;;5.00;67.10;;;;;;5005902;28;20045;-77
2024/01/19 12:27:39;;;;;;;22.57;2.30;;;5.00;66.60;;;;;;5034415;28;20061;-75
2024/01/19 12:30:12;;;;;;;13.20;1.63;;;4.90;67.10;;;;;;5035689;28;20627;-76
2024/01/19 12:32:37;;;;;;;11.37;1.90;;;4.70;67.30;;;;;;5014326;28;20510;-76
2024/01/19 12:35:03;;;;;;;10.97;2.10;;;4.40;67.60;;;;;;5012520;28;20080;-75
2024/01/19 12:37:29;;;;;;;10.80;2.10;;;4.40;68.30;;;;;;5018116;28;20060;-75
2024/01/19 12:40:11;;;;;;;12.10;2.17;;;4.50;67.90;;;;;;5017611;28;20060;-75
2024/01/19 12:42:36;;;;;;;12.15;1.70;;;4.50;67.50;;;;;;5048370;28;20032;-76